Time;durP1;ratioP1;P1;durP2;ratioP2;P2;SDS_P1;SDS_P2;PMS_P1;PMS_P2;Temp;Humidity;BMP_temperature;BMP_pressure;BME280_temperature;BME280_humidity;BME280_pressure;Samples;Min_cycle;Max_cycle;Signal;HPM_P1;HPM_P2
2023/08/17 00:01:50;;;;;;;0.00;0.00;;;;;;;18.36;100.00;102076.84;5073183;28;20025;-45
2023/08/17 00:04:16;;;;;;;0.00;0.00;;;;;;;18.34;100.00;102067.22;5073038;28;20486;-47
2023/08/17 00:06:42;;;;;;;0.00;0.00;;;;;;;18.27;100.00;102078.06;5054836;28;20035;-46
2023/08/17 00:09:07;;;;;;;0.00;0.00;;;;;;;18.25;100.00;102073.88;5073862;28;20017;-47
2023/08/17 00:11:33;;;;;;;0.00;0.00;;;;;;;18.20;100.00;102079.94;5073017;28;20025;-46
2023/08/17 00:13:58;;;;;;;0.00;0.00;;;;;;;18.21;100.00;102076.16;5073033;28;20500;-45
2023/08/17 00:16:24;;;;;;;0.00;0.00;;;;;;;18.18;100.00;102082.84;5072976;28;20526;-49
2023/08/17 00:18:49;;;;;;;0.00;0.00;;;;;;;18.18;100.00;102077.41;5054890;28;20047;-46
2023/08/17 00:21:15;;;;;;;0.00;0.00;;;;;;;18.16;100.00;102079.47;5072712;28;20108;-47
2023/08/17 00:23:40;;;;;;;0.00;0.00;;;;;;;18.12;100.00;102078.22;5072479;28;20387;-47
2023/08/17 00:26:06;;;;;;;0.00;0.00;;;;;;;18.11;100.00;102081.97;5072679;28;20413;-48
2023/08/17 00:28:31;;;;;;;0.00;0.00;;;;;;;18.12;100.00;102077.38;5072409;28;20471;-46
2023/08/17 00:30:57;;;;;;;0.00;0.00;;;;;;;18.09;100.00;102078.63;5072444;28;20039;-47
2023/08/17 00:33:22;;;;;;;0.00;0.00;;;;;;;18.10;100.00;102074.84;5072374;28;20029;-47
2023/08/17 00:35:48;;;;;;;0.00;0.00;;;;;;;18.06;100.00;102068.16;5072222;28;20024;-47
2023/08/17 00:38:13;;;;;;;0.00;0.00;;;;;;;18.03;100.00;102068.53;5072194;28;20170;-47
2023/08/17 00:40:39;;;;;;;0.00;0.00;;;;;;;18.03;100.00;102073.97;5072033;28;20028;-47
2023/08/17 00:43:05;;;;;;;0.00;0.00;;;;;;;17.96;100.00;102063.06;5071146;28;20413;-46
2023/08/17 00:45:31;;;;;;;0.00;0.00;;;;;;;17.89;100.00;102058.59;5072001;28;20040;-48
2023/08/17 00:47:57;;;;;;;0.00;0.00;;;;;;;17.92;100.00;102060.94;5071747;28;20025;-51
2023/08/17 00:50:24;;;;;;;0.00;0.00;;;;;;;17.92;100.00;102063.66;5052763;28;20402;-47
2023/08/17 00:52:51;;;;;;;0.00;0.00;;;;;;;17.90;100.00;102057.56;5071758;28;20048;-47
2023/08/17 00:55:17;;;;;;;0.00;0.00;;;;;;;17.88;100.00;102067.84;5054063;28;20024;-50
2023/08/17 00:57:42;;;;;;;0.00;0.00;;;;;;;17.90;100.00;102068.44;5053707;28;20119;-47
2023/08/17 01:00:09;;;;;;;0.00;0.00;;;;;;;17.88;100.00;102076.00;5071763;28;20043;-49
2023/08/17 01:02:34;;;;;;;0.00;0.00;;;;;;;17.77;100.00;102064.59;5053922;28;20125;-47
2023/08/17 01:05:00;;;;;;;0.00;0.00;;;;;;;17.82;100.00;102076.78;5071685;28;20064;-47
2023/08/17 01:07:26;;;;;;;0.00;0.00;;;;;;;17.85;100.00;102076.38;5071391;28;20035;-45
2023/08/17 01:09:51;;;;;;;0.00;0.00;;;;;;;17.83;100.00;102073.03;5071576;28;20032;-45
2023/08/17 01:12:26;;;;;;;0.00;0.00;;;;;;;17.80;100.00;102074.28;5053610;28;20024;-50
2023/08/17 01:15:09;;;;;;;0.00;0.00;;;;;;;17.78;100.00;102071.72;5071386;28;20489;-47
2023/08/17 01:17:59;;;;;;;0.00;0.00;;;;;;;17.77;100.00;102066.44;5070601;28;20039;-48
2023/08/17 01:20:25;;;;;;;0.00;0.00;;;;;;;17.75;100.00;102060.38;5053182;28;20158;-45
2023/08/17 01:22:52;;;;;;;0.00;0.00;;;;;;;17.74;100.00;102054.06;5053161;28;20574;-49
2023/08/17 01:25:17;;;;;;;0.00;0.00;;;;;;;17.73;100.00;102060.56;5071229;28;20024;-50
2023/08/17 01:27:46;;;;;;;0.00;0.00;;;;;;;17.71;100.00;102062.66;5070736;28;20158;-47
2023/08/17 01:30:14;;;;;;;0.00;0.00;;;;;;;17.69;100.00;102056.59;5071104;28;20109;-51
2023/08/17 01:33:08;;;;;;;0.00;0.00;;;;;;;17.63;100.00;102059.25;5071118;28;20028;-45
2023/08/17 01:35:59;;;;;;;0.00;0.00;;;;;;;17.60;100.00;102057.75;5053121;28;20085;-47
2023/08/17 01:38:25;;;;;;;0.00;0.00;;;;;;;17.62;100.00;102060.31;5073344;28;20024;-44
2023/08/17 01:40:53;;;;;;;0.00;0.00;;;;;;;17.58;100.00;102065.28;5055814;28;20480;-45
2023/08/17 01:43:18;;;;;;;0.00;0.00;;;;;;;17.57;100.00;102069.06;5054962;28;20645;-45
2023/08/17 01:45:44;;;;;;;0.08;0.00;;;;;;;17.54;100.00;102061.28;5036490;28;20020;-45
2023/08/17 01:48:09;;;;;;;0.00;0.00;;;;;;;17.54;100.00;102058.56;5070918;28;20043;-44
2023/08/17 01:50:34;;;;;;;0.00;0.00;;;;;;;17.52;100.00;102056.03;5052881;28;20020;-45
2023/08/17 01:53:00;;;;;;;0.00;0.00;;;;;;;17.50;100.00;102049.09;5070874;28;20107;-44
2023/08/17 01:55:26;;;;;;;0.00;0.00;;;;;;;17.48;100.00;102048.47;5070747;28;20025;-45
2023/08/17 01:57:52;;;;;;;0.00;0.00;;;;;;;17.47;100.00;102046.78;5069828;28;20021;-45
2023/08/17 02:00:17;;;;;;;0.00;0.00;;;;;;;17.45;100.00;102048.84;5052184;28;20051;-47
2023/08/17 02:02:43;;;;;;;0.00;0.00;;;;;;;17.42;100.00;102044.66;5070504;28;20024;-47
2023/08/17 02:05:08;;;;;;;0.00;0.00;;;;;;;17.41;100.00;102047.59;5070247;28;20032;-45
2023/08/17 02:07:34;;;;;;;0.00;0.00;;;;;;;17.33;100.00;102049.41;5070439;28;20029;-45
2023/08/17 02:09:59;;;;;;;0.00;0.00;;;;;;;17.27;100.00;102052.94;5070343;28;20080;-47
2023/08/17 02:12:24;;;;;;;0.00;0.00;;;;;;;17.24;100.00;102056.00;5070492;28;20028;-45
2023/08/17 02:14:50;;;;;;;0.00;0.00;;;;;;;17.21;100.00;102050.13;5070366;28;20103;-47
2023/08/17 02:17:16;;;;;;;0.00;0.00;;;;;;;17.22;100.00;102054.53;5070543;28;20123;-47
2023/08/17 02:19:42;;;;;;;0.00;0.00;;;;;;;17.20;100.00;102052.03;5070615;28;20020;-47
2023/08/17 02:22:08;;;;;;;0.00;0.00;;;;;;;17.23;100.00;102053.50;5070752;28;20105;-45
2023/08/17 02:24:33;;;;;;;0.00;0.00;;;;;;;17.21;100.00;102059.13;5070716;28;20470;-45
2023/08/17 02:26:59;;;;;;;0.00;0.00;;;;;;;17.16;100.00;102050.72;5070537;28;20119;-44
2023/08/17 02:29:24;;;;;;;0.00;0.00;;;;;;;17.14;100.00;102054.66;5070237;28;20110;-45
2023/08/17 02:31:49;;;;;;;0.00;0.00;;;;;;;17.14;100.00;102063.69;5070383;28;20107;-46
2023/08/17 02:34:15;;;;;;;0.00;0.00;;;;;;;17.14;100.00;102057.38;5070104;28;20111;-47
2023/08/17 02:36:40;;;;;;;0.00;0.00;;;;;;;17.15;100.00;102059.94;5069700;28;20025;-47
2023/08/17 02:39:06;;;;;;;0.00;0.00;;;;;;;17.13;100.00;102056.56;5052280;28;20494;-47
2023/08/17 02:41:32;;;;;;;0.00;0.00;;;;;;;17.08;100.00;102067.19;5070228;28;20149;-49
2023/08/17 02:43:57;;;;;;;0.00;0.00;;;;;;;17.11;100.00;102061.34;5070026;28;20719;-45
2023/08/17 02:46:23;;;;;;;0.00;0.00;;;;;;;17.10;100.00;102056.94;5070348;28;20534;-46
2023/08/17 02:48:49;;;;;;;0.00;0.00;;;;;;;17.09;100.00;102055.28;5070095;28;20443;-47
2023/08/17 02:51:15;;;;;;;0.00;0.00;;;;;;;17.05;100.00;102053.97;5070067;28;20021;-49
2023/08/17 02:53:40;;;;;;;0.00;0.00;;;;;;;17.05;100.00;102048.53;5070151;28;20024;-47
2023/08/17 02:56:06;;;;;;;0.00;0.00;;;;;;;17.00;100.00;102051.00;5069981;28;20403;-46
2023/08/17 02:58:31;;;;;;;0.00;0.00;;;;;;;17.02;100.00;102054.38;5069775;28;20428;-46
2023/08/17 03:00:56;;;;;;;0.00;0.00;;;;;;;17.04;100.00;102053.13;5069993;28;20110;-48
2023/08/17 03:03:22;;;;;;;0.00;0.00;;;;;;;17.01;100.00;102050.81;5069880;28;20052;-47
2023/08/17 03:05:47;;;;;;;0.00;0.00;;;;;;;16.98;100.00;102053.94;5069265;28;20314;-47
2023/08/17 03:08:12;;;;;;;0.00;0.00;;;;;;;16.99;100.00;102049.31;5069851;28;20032;-46
2023/08/17 03:10:38;;;;;;;0.00;0.00;;;;;;;16.97;100.00;102054.13;5069880;28;20021;-50
2023/08/17 03:13:04;;;;;;;0.00;0.00;;;;;;;16.93;100.00;102050.94;5071051;28;20056;-46
2023/08/17 03:15:29;;;;;;;0.00;0.00;;;;;;;16.93;100.00;102055.53;5073422;28;20111;-47
2023/08/17 03:17:55;;;;;;;0.00;0.00;;;;;;;16.86;100.00;102059.03;5073636;28;20021;-45
2023/08/17 03:20:20;;;;;;;0.00;0.00;;;;;;;16.88;100.00;102053.41;5073210;28;20483;-49
2023/08/17 03:22:45;;;;;;;0.00;0.00;;;;;;;16.91;100.00;102049.47;5073752;28;20428;-47
2023/08/17 03:25:11;;;;;;;0.00;0.00;;;;;;;16.89;100.00;102049.66;5073507;28;20028;-45
2023/08/17 03:27:36;;;;;;;0.00;0.00;;;;;;;16.88;100.00;102053.41;5073236;28;20558;-48
2023/08/17 03:30:03;;;;;;;0.00;0.00;;;;;;;16.87;100.00;102054.44;5073361;28;20065;-45
2023/08/17 03:32:28;;;;;;;0.00;0.00;;;;;;;16.91;100.00;102044.84;5073160;28;20033;-47
2023/08/17 03:34:54;;;;;;;0.00;0.00;;;;;;;16.93;100.00;102040.06;5073255;28;20081;-48
2023/08/17 03:37:19;;;;;;;0.00;0.00;;;;;;;16.93;100.00;102041.94;5072959;28;20028;-51
2023/08/17 03:39:45;;;;;;;0.00;0.00;;;;;;;16.93;100.00;102045.50;5073707;28;20471;-46
2023/08/17 03:42:10;;;;;;;0.00;0.00;;;;;;;16.96;100.00;102049.72;5072739;28;20112;-49
2023/08/17 03:44:35;;;;;;;0.00;0.00;;;;;;;16.96;100.00;102050.56;5072401;28;20337;-46
2023/08/17 03:47:01;;;;;;;0.00;0.00;;;;;;;16.99;100.00;102038.44;5072871;28;20031;-49
2023/08/17 03:49:26;;;;;;;0.00;0.00;;;;;;;17.01;100.00;102042.66;5073042;28;20029;-49
2023/08/17 03:51:51;;;;;;;0.00;0.00;;;;;;;17.00;100.00;102035.50;5072962;28;20024;-51
2023/08/17 03:54:17;;;;;;;0.00;0.00;;;;;;;17.03;100.00;102042.44;5072518;28;20024;-46
2023/08/17 03:56:42;;;;;;;0.00;0.00;;;;;;;16.98;100.00;102043.06;5072509;28;20024;-51
2023/08/17 03:59:08;;;;;;;0.00;0.00;;;;;;;16.95;100.00;102034.41;5072606;28;20199;-47
2023/08/17 04:01:33;;;;;;;0.00;0.00;;;;;;;16.93;100.00;102022.88;5054646;28;20475;-45
2023/08/17 04:03:58;;;;;;;0.00;0.00;;;;;;;16.89;100.00;102031.44;5054639;28;20093;-47
2023/08/17 04:06:24;;;;;;;0.00;0.00;;;;;;;16.85;100.00;102038.31;5071814;28;20032;-47
2023/08/17 04:08:49;;;;;;;0.00;0.00;;;;;;;16.82;100.00;102038.69;5072327;28;20020;-49
2023/08/17 04:11:14;;;;;;;0.00;0.00;;;;;;;16.84;100.00;102049.38;5072453;28;20025;-48
2023/08/17 04:13:40;;;;;;;0.00;0.00;;;;;;;16.81;100.00;102053.31;5072503;28;20024;-45
2023/08/17 04:16:05;;;;;;;0.00;0.00;;;;;;;16.80;100.00;102058.97;5072489;28;20047;-45
2023/08/17 04:18:31;;;;;;;0.00;0.00;;;;;;;16.76;100.00;102053.03;5072556;28;20028;-45
2023/08/17 04:20:56;;;;;;;0.00;0.00;;;;;;;16.75;100.00;102058.69;5072787;28;20028;-44
2023/08/17 04:23:21;;;;;;;0.00;0.00;;;;;;;16.78;100.00;102053.72;5072621;28;20024;-45
2023/08/17 04:25:48;;;;;;;0.00;0.00;;;;;;;16.76;100.00;102047.59;5072556;28;20024;-47
2023/08/17 04:28:13;;;;;;;0.00;0.00;;;;;;;16.74;100.00;102049.66;5072797;28;20159;-48
2023/08/17 04:30:39;;;;;;;0.00;0.00;;;;;;;16.77;100.00;102045.72;5072277;28;20032;-45
2023/08/17 04:33:04;;;;;;;0.00;0.00;;;;;;;16.82;100.00;102052.28;5072308;28;20281;-45
2023/08/17 04:35:30;;;;;;;0.00;0.00;;;;;;;16.86;100.00;102050.03;5037443;28;20425;-46
2023/08/17 04:37:55;;;;;;;0.00;0.00;;;;;;;16.82;100.00;102048.72;5053719;28;20020;-45
2023/08/17 04:40:21;;;;;;;0.00;0.00;;;;;;;16.83;100.00;102050.44;5071816;28;20501;-45
2023/08/17 04:42:46;;;;;;;0.00;0.00;;;;;;;16.82;100.00;102055.00;5053835;28;20032;-45
2023/08/17 04:45:12;;;;;;;0.00;0.00;;;;;;;16.80;100.00;102046.22;5071887;28;20522;-44
2023/08/17 04:47:39;;;;;;;0.00;0.00;;;;;;;16.80;100.00;102054.38;5072131;28;20082;-47
2023/08/17 04:50:05;;;;;;;0.00;0.00;;;;;;;16.81;100.00;102047.88;5071718;28;20027;-46
2023/08/17 04:52:30;;;;;;;0.00;0.00;;;;;;;16.85;100.00;102042.91;5071551;28;20035;-48
2023/08/17 04:54:55;;;;;;;0.00;0.00;;;;;;;16.84;100.00;102042.06;5071812;28;20037;-47
2023/08/17 04:57:21;;;;;;;0.00;0.00;;;;;;;16.80;100.00;102048.94;5071667;28;20115;-46
2023/08/17 04:59:46;;;;;;;0.00;0.00;;;;;;;16.81;100.00;102047.06;5071989;28;20113;-47
2023/08/17 05:02:11;;;;;;;0.00;0.00;;;;;;;16.86;100.00;102050.88;5071839;28;20020;-45
2023/08/17 05:04:37;;;;;;;0.00;0.00;;;;;;;16.88;100.00;102043.38;5072000;28;20336;-46
2023/08/17 05:07:02;;;;;;;0.00;0.00;;;;;;;16.94;100.00;102040.91;5070916;28;20032;-48
2023/08/17 05:09:28;;;;;;;0.00;0.00;;;;;;;17.00;100.00;102032.78;5070976;28;20039;-47
2023/08/17 05:11:54;;;;;;;0.00;0.00;;;;;;;17.02;100.00;102029.91;5071246;28;20107;-46
2023/08/17 05:14:19;;;;;;;0.00;0.00;;;;;;;17.00;100.00;102029.25;5071229;28;20067;-47
2023/08/17 05:16:44;;;;;;;0.00;0.00;;;;;;;17.05;100.00;102033.06;5071452;28;20401;-45
2023/08/17 05:19:10;;;;;;;0.00;0.00;;;;;;;17.04;100.00;102025.09;5070971;28;20035;-45
2023/08/17 05:21:36;;;;;;;0.00;0.00;;;;;;;17.11;100.00;102025.97;5060699;28;20021;-46
2023/08/17 05:24:01;;;;;;;0.00;0.00;;;;;;;17.17;100.00;102030.66;5051085;28;20464;-47
2023/08/17 05:26:27;;;;;;;0.00;0.00;;;;;;;17.20;100.00;102026.69;5050935;28;20107;-45
2023/08/17 05:28:52;;;;;;;0.00;0.00;;;;;;;17.28;100.00;102035.56;5050793;28;20654;-47
2023/08/17 05:31:18;;;;;;;0.00;0.00;;;;;;;17.34;100.00;102031.19;5051114;28;20021;-45
2023/08/17 05:33:43;;;;;;;0.10;0.00;;;;;;;17.28;100.00;102030.13;5051570;28;20056;-46
2023/08/17 05:36:09;;;;;;;0.00;0.00;;;;;;;17.26;100.00;102031.34;5050507;28;20530;-47
2023/08/17 05:38:34;;;;;;;0.00;0.00;;;;;;;17.32;100.00;102027.81;5051010;28;20029;-45
2023/08/17 05:40:59;;;;;;;0.00;0.00;;;;;;;17.40;100.00;102035.84;5051053;28;20379;-47
2023/08/17 05:43:25;;;;;;;0.00;0.00;;;;;;;17.46;100.00;102029.63;5050729;28;20305;-48
2023/08/17 05:45:51;;;;;;;0.00;0.00;;;;;;;17.55;100.00;102038.47;5051071;28;20431;-48
2023/08/17 05:48:19;;;;;;;0.00;0.00;;;;;;;17.62;100.00;102038.53;5050868;28;20090;-47
2023/08/17 05:50:44;;;;;;;;;;;;;;;17.67;100.00;102030.59;5051333;28;20025;-48
2023/08/17 05:53:09;;;;;;;0.00;0.00;;;;;;;17.69;100.00;102034.81;5050710;28;19905;-45
2023/08/17 05:55:35;;;;;;;0.00;0.00;;;;;;;17.74;100.00;102034.19;5050741;28;20108;-44
2023/08/17 05:58:00;;;;;;;0.00;0.00;;;;;;;17.77;100.00;102040.09;5050517;28;20033;-45
2023/08/17 06:00:25;;;;;;;0.00;0.00;;;;;;;17.87;100.00;102036.19;5050904;28;20194;-45
2023/08/17 06:02:51;;;;;;;0.00;0.00;;;;;;;17.95;100.00;102038.72;5052389;28;20033;-45
2023/08/17 06:05:17;;;;;;;0.00;0.00;;;;;;;17.98;100.00;102035.59;5052021;28;20080;-44
2023/08/17 06:07:43;;;;;;;0.00;0.00;;;;;;;18.02;100.00;102042.34;5051673;28;20166;-45
2023/08/17 06:10:09;;;;;;;0.00;0.00;;;;;;;18.07;100.00;102049.91;5051607;28;20129;-46
2023/08/17 06:12:34;;;;;;;0.00;0.00;;;;;;;18.12;100.00;102050.16;5051459;28;20314;-44
2023/08/17 06:15:01;;;;;;;0.00;0.00;;;;;;;18.13;100.00;102055.38;5050897;28;20447;-46
2023/08/17 06:17:27;;;;;;;0.00;0.00;;;;;;;18.10;100.00;102053.06;5050780;28;20576;-46
2023/08/17 06:19:52;;;;;;;0.00;0.00;;;;;;;18.14;100.00;102054.34;5050603;28;20104;-47
2023/08/17 06:22:17;;;;;;;0.00;0.00;;;;;;;18.12;100.00;102048.25;5032681;28;20487;-47
2023/08/17 06:24:43;;;;;;;0.00;0.00;;;;;;;18.19;100.00;102051.84;5050450;28;20039;-45
2023/08/17 06:27:08;;;;;;;0.00;0.00;;;;;;;18.24;100.00;102051.22;5050189;28;20028;-48
2023/08/17 06:29:33;;;;;;;0.00;0.00;;;;;;;18.32;100.00;102050.22;5050349;28;20045;-45
2023/08/17 06:31:59;;;;;;;0.00;0.00;;;;;;;18.42;100.00;102056.13;5050670;28;20025;-48
2023/08/17 06:34:24;;;;;;;0.00;0.00;;;;;;;18.46;100.00;102053.81;5050303;28;20083;-45
2023/08/17 06:37:01;;;;;;;0.00;0.00;;;;;;;18.41;100.00;102049.00;5049120;28;20025;-47
2023/08/17 06:39:27;;;;;;;0.00;0.00;;;;;;;18.35;100.00;102056.13;5051008;28;20486;-48
2023/08/17 06:41:52;;;;;;;0.00;0.00;;;;;;;18.29;100.00;102064.25;5050217;28;20025;-46
2023/08/17 06:44:18;;;;;;;0.00;0.00;;;;;;;18.21;100.00;102063.38;5049932;28;20448;-48
2023/08/17 06:46:43;;;;;;;0.00;0.00;;;;;;;18.18;100.00;102063.78;5050204;28;20036;-49
2023/08/17 06:49:09;;;;;;;0.00;0.00;;;;;;;18.19;100.00;102060.03;5052530;28;20031;-46
2023/08/17 06:51:34;;;;;;;0.00;0.00;;;;;;;18.24;100.00;102069.47;5054139;28;20115;-48
2023/08/17 06:54:00;;;;;;;0.00;0.00;;;;;;;18.23;100.00;102067.78;5053939;28;20090;-48
2023/08/17 06:56:25;;;;;;;0.00;0.00;;;;;;;18.27;100.00;102079.94;5054372;28;20479;-46
2023/08/17 06:58:51;;;;;;;0.00;0.00;;;;;;;18.27;100.00;102064.44;5053687;28;20073;-47
2023/08/17 07:01:16;;;;;;;0.00;0.00;;;;;;;18.29;100.00;102066.97;5054079;28;20391;-49
2023/08/17 07:03:41;;;;;;;0.00;0.00;;;;;;;18.29;100.00;102072.41;5053842;28;20080;-48
2023/08/17 07:06:08;;;;;;;0.00;0.00;;;;;;;18.36;100.00;102063.22;5053961;28;20021;-45
2023/08/17 07:08:33;;;;;;;0.00;0.00;;;;;;;18.46;100.00;102057.41;5035510;28;20071;-47
2023/08/17 07:10:59;;;;;;;0.00;0.00;;;;;;;18.55;100.00;102050.72;5053903;28;20045;-47
2023/08/17 07:13:24;;;;;;;0.00;0.00;;;;;;;18.73;100.00;102057.47;5054052;28;20071;-45
2023/08/17 07:15:49;;;;;;;0.00;0.00;;;;;;;18.98;100.00;102055.84;5053529;28;20467;-47
2023/08/17 07:18:15;;;;;;;0.00;0.00;;;;;;;19.30;100.00;102050.63;5035403;28;20021;-45
2023/08/17 07:20:40;;;;;;;0.00;0.00;;;;;;;19.92;100.00;102041.09;5053035;28;20028;-47
2023/08/17 07:23:05;;;;;;;0.00;0.00;;;;;;;20.49;100.00;102040.44;5053488;28;20124;-47
2023/08/17 07:25:32;;;;;;;0.00;0.00;;;;;;;20.72;100.00;102042.63;5053162;28;20032;-46
2023/08/17 07:27:57;;;;;;;0.00;0.00;;;;;;;20.69;100.00;102030.22;5053239;28;20021;-47
2023/08/17 07:30:23;;;;;;;0.00;0.00;;;;;;;21.23;100.00;102027.94;5052910;28;20035;-48
2023/08/17 07:32:48;;;;;;;0.00;0.00;;;;;;;21.90;100.00;102033.59;5053208;28;20021;-47
2023/08/17 07:35:13;;;;;;;0.00;0.00;;;;;;;22.83;100.00;102035.13;5053039;28;20130;-48
2023/08/17 07:37:39;;;;;;;0.00;0.00;;;;;;;23.41;100.00;102036.31;5053234;28;20082;-47
2023/08/17 07:40:05;;;;;;;0.00;0.00;;;;;;;23.73;100.00;102036.81;5052999;28;20049;-44
2023/08/17 07:42:30;;;;;;;0.00;0.00;;;;;;;24.10;100.00;102030.97;5053201;28;20021;-45
2023/08/17 07:44:55;;;;;;;0.00;0.00;;;;;;;24.41;100.00;102023.31;5052869;28;20029;-49
2023/08/17 07:47:21;;;;;;;0.00;0.00;;;;;;;24.86;100.00;102031.63;5053121;28;20027;-46
2023/08/17 07:49:46;;;;;;;0.00;0.00;;;;;;;25.11;100.00;102022.13;5052704;28;20025;-47
2023/08/17 07:52:11;;;;;;;0.00;0.00;;;;;;;24.75;100.00;102025.09;5053231;28;20029;-48
2023/08/17 07:54:37;;;;;;;0.03;0.00;;;;;;;24.31;100.00;102030.31;5052886;28;20025;-48
2023/08/17 07:57:03;;;;;;;0.00;0.00;;;;;;;23.67;100.00;102030.31;5053071;28;20348;-47
2023/08/17 07:59:29;;;;;;;0.00;0.00;;;;;;;23.47;100.00;102035.34;5052084;28;20065;-48
2023/08/17 08:01:54;;;;;;;0.00;0.00;;;;;;;23.32;100.00;102030.31;5052751;28;20543;-49
2023/08/17 08:04:19;;;;;;;0.00;0.00;;;;;;;23.33;100.00;102034.75;5034945;28;20029;-47
2023/08/17 08:06:46;;;;;;;0.00;0.00;;;;;;;23.99;100.00;102023.59;5052641;28;20033;-48
2023/08/17 08:09:12;;;;;;;0.00;0.00;;;;;;;25.20;100.00;102023.41;5052688;28;20184;-48
2023/08/17 08:11:37;;;;;;;0.00;0.00;;;;;;;26.47;100.00;102021.50;5052710;28;20100;-47
2023/08/17 08:14:02;;;;;;;0.00;0.00;;;;;;;27.30;99.06;102015.63;5052548;28;20116;-46
2023/08/17 08:16:30;;;;;;;0.00;0.00;;;;;;;27.19;98.29;102013.91;5053133;28;20039;-48
2023/08/17 08:18:55;;;;;;;0.00;0.00;;;;;;;27.65;95.73;102005.91;5052946;28;20085;-48
2023/08/17 08:21:21;;;;;;;0.00;0.00;;;;;;;28.21;92.56;102019.97;5052443;28;20448;-45
2023/08/17 08:23:46;;;;;;;0.00;0.00;;;;;;;28.30;89.90;102024.97;5052748;28;20051;-48
2023/08/17 08:26:12;;;;;;;0.00;0.00;;;;;;;28.33;89.72;102027.19;5052242;28;20021;-47
2023/08/17 08:28:37;;;;;;;0.00;0.00;;;;;;;28.64;89.23;102017.03;5052435;28;20166;-48
2023/08/17 08:31:05;;;;;;;0.00;0.00;;;;;;;27.83;91.44;102009.31;5052313;28;20494;-46
2023/08/17 08:33:31;;;;;;;0.00;0.00;;;;;;;26.99;96.69;102011.78;5052065;28;20123;-48
2023/08/17 08:35:56;;;;;;;0.00;0.00;;;;;;;26.74;99.44;102012.41;5052120;28;20502;-47
2023/08/17 08:38:22;;;;;;;0.00;0.00;;;;;;;27.09;99.10;102009.13;5052163;28;20025;-45
2023/08/17 08:40:47;;;;;;;0.00;0.00;;;;;;;27.30;99.41;102004.56;5051756;28;20020;-50
2023/08/17 08:43:16;;;;;;;0.00;0.00;;;;;;;28.01;92.10;101995.81;5050998;28;20028;-49
2023/08/17 08:45:41;;;;;;;0.00;0.00;;;;;;;28.44;88.79;102001.25;5052638;28;20086;-47
2023/08/17 08:48:08;;;;;;;0.00;0.00;;;;;;;28.40;87.43;102000.09;5052483;28;20112;-46
2023/08/17 08:50:35;;;;;;;0.00;0.00;;;;;;;28.31;88.18;101993.44;5051940;28;20028;-49
2023/08/17 08:53:04;;;;;;;0.00;0.00;;;;;;;28.35;87.68;101997.31;5052197;28;20379;-48
2023/08/17 08:55:34;;;;;;;0.00;0.00;;;;;;;28.63;86.70;101998.78;5051959;28;20021;-47
2023/08/17 08:58:00;;;;;;;0.00;0.00;;;;;;;29.20;86.29;101999.59;5051892;28;20035;-48
2023/08/17 09:00:26;;;;;;;0.00;0.00;;;;;;;29.03;84.17;101991.56;5051320;28;20458;-48
2023/08/17 09:02:51;;;;;;;0.00;0.00;;;;;;;28.89;86.92;101994.91;5051582;28;20112;-47
2023/08/17 09:05:17;;;;;;;0.00;0.00;;;;;;;28.79;87.46;102003.22;5052100;28;20032;-47
2023/08/17 09:07:44;;;;;;;0.00;0.00;;;;;;;28.37;89.79;101997.88;5051141;28;20056;-48
2023/08/17 09:10:10;;;;;;;0.00;0.00;;;;;;;28.52;87.57;101997.09;5050749;28;20021;-47
2023/08/17 09:12:36;;;;;;;0.00;0.00;;;;;;;28.52;86.40;101995.16;5051094;28;20033;-48
2023/08/17 09:15:01;;;;;;;0.00;0.00;;;;;;;28.82;86.65;101982.44;5051624;28;20129;-48
2023/08/17 09:17:28;;;;;;;0.00;0.00;;;;;;;29.08;84.73;101989.66;5051442;28;20401;-48
2023/08/17 09:19:53;;;;;;;0.00;0.00;;;;;;;29.07;84.05;101985.22;5051649;28;20025;-49
2023/08/17 09:22:42;;;;;;;0.00;0.00;;;;;;;28.14;88.36;101988.94;5033719;28;20040;-48
2023/08/17 09:25:10;;;;;;;0.00;0.00;;;;;;;27.81;90.70;101975.56;5051697;28;20024;-47
2023/08/17 09:27:38;;;;;;;0.00;0.00;;;;;;;27.76;91.20;101979.13;5051361;28;20025;-50
2023/08/17 09:30:10;;;;;;;0.00;0.00;;;;;;;28.28;89.37;101969.03;5051375;28;20082;-48
2023/08/17 09:32:36;;;;;;;0.00;0.00;;;;;;;28.38;89.69;101969.06;5051355;28;20021;-46
2023/08/17 09:35:06;;;;;;;0.00;0.00;;;;;;;28.89;87.83;101969.13;5051534;28;20395;-48
2023/08/17 09:37:31;;;;;;;0.00;0.00;;;;;;;29.23;85.93;101963.03;5050746;28;20051;-49
2023/08/17 09:39:57;;;;;;;0.00;0.00;;;;;;;29.42;84.13;101955.75;5050971;28;20448;-48
2023/08/17 09:42:22;;;;;;;0.00;0.00;;;;;;;29.61;83.64;101960.66;5051118;28;20471;-47
2023/08/17 09:44:52;;;;;;;0.00;0.00;;;;;;;29.23;83.87;101960.25;5051226;28;20025;-51
2023/08/17 09:47:23;;;;;;;0.00;0.00;;;;;;;27.75;90.23;101952.53;5033297;28;20028;-48
2023/08/17 09:49:52;;;;;;;0.00;0.00;;;;;;;27.65;92.09;101950.59;5051083;28;20552;-47
2023/08/17 09:52:18;;;;;;;0.00;0.00;;;;;;;28.29;90.32;101949.41;5050986;28;20036;-44
2023/08/17 09:54:46;;;;;;;0.00;0.00;;;;;;;28.75;88.09;101962.47;5051323;28;20021;-45
2023/08/17 09:57:12;;;;;;;0.00;0.00;;;;;;;28.56;87.88;101948.34;5050534;28;20104;-46
2023/08/17 09:59:37;;;;;;;0.00;0.00;;;;;;;27.67;91.65;101948.34;5032677;28;20521;-46
2023/08/17 10:02:03;;;;;;;0.00;0.00;;;;;;;27.05;95.61;101960.16;5050501;28;20045;-45
2023/08/17 10:04:30;;;;;;;0.00;0.00;;;;;;;26.67;99.45;101956.53;5033142;28;20515;-44
2023/08/17 10:07:01;;;;;;;0.00;0.00;;;;;;;26.93;97.26;101961.16;5033538;28;20155;-46
2023/08/17 10:09:31;;;;;;;0.00;0.00;;;;;;;26.59;97.38;101962.53;5051175;28;20025;-45
2023/08/17 10:11:58;;;;;;;0.00;0.00;;;;;;;26.12;99.09;101952.13;5033285;28;20029;-44
2023/08/17 10:14:30;;;;;;;0.00;0.00;;;;;;;25.79;100.00;101952.00;5032879;28;20051;-44
2023/08/17 10:17:02;;;;;;;0.00;0.00;;;;;;;26.25;100.00;101946.19;5050825;28;20115;-46
2023/08/17 10:19:36;;;;;;;0.00;0.00;;;;;;;25.92;99.54;101949.97;5051543;28;20021;-45
2023/08/17 10:22:17;;;;;;;0.00;0.00;;;;;;;25.76;100.00;101940.66;5033973;28;20040;-45
2023/08/17 10:24:43;;;;;;;0.00;0.00;;;;;;;26.52;98.23;101940.69;5036966;28;20162;-45
2023/08/17 10:27:09;;;;;;;0.20;0.00;;;;;;;26.90;93.80;101934.06;5037529;28;20530;-46
2023/08/17 10:29:36;;;;;;;0.00;0.00;;;;;;;26.95;92.68;101938.00;5056910;28;20036;-44
2023/08/17 10:32:02;;;;;;;0.00;0.00;;;;;;;26.63;93.37;101955.41;5039306;28;20092;-42
2023/08/17 10:34:28;;;;;;;0.10;0.00;;;;;;;26.32;96.19;101948.75;5038528;28;20510;-44
2023/08/17 10:36:57;;;;;;;0.00;0.00;;;;;;;25.89;99.40;101945.81;5037423;28;20084;-44
2023/08/17 10:39:25;;;;;;;0.00;0.00;;;;;;;25.33;100.00;101942.28;5054852;28;20083;-44
2023/08/17 10:41:51;;;;;;;0.00;0.00;;;;;;;26.09;100.00;101950.72;5054631;28;20044;-44
2023/08/17 10:44:39;;;;;;;0.00;0.00;;;;;;;26.76;97.58;101948.63;5054449;28;20487;-47
2023/08/17 10:47:30;;;;;;;0.00;0.00;;;;;;;26.64;96.93;101948.78;5054503;28;20033;-44
2023/08/17 10:50:06;;;;;;;0.00;0.00;;;;;;;26.53;97.74;101952.56;5054295;28;20547;-45
2023/08/17 10:52:36;;;;;;;0.00;0.00;;;;;;;26.77;97.00;101944.75;5054154;28;20025;-45
2023/08/17 10:55:05;;;;;;;0.00;0.00;;;;;;;26.37;97.63;101944.09;5054097;28;20382;-47
2023/08/17 10:57:41;;;;;;;0.00;0.00;;;;;;;25.62;100.00;101935.53;5054158;28;20021;-48
2023/08/17 11:00:31;;;;;;;0.00;0.00;;;;;;;25.74;100.00;101942.84;5053981;28;20132;-46
2023/08/17 11:03:02;;;;;;;0.00;0.00;;;;;;;26.11;99.98;101942.19;5053731;28;20029;-45
2023/08/17 11:05:46;;;;;;;0.00;0.00;;;;;;;26.78;97.43;101936.22;5053888;28;20104;-47
2023/08/17 11:08:31;;;;;;;0.00;0.00;;;;;;;27.13;96.25;101940.31;5053563;28;20031;-49
2023/08/17 11:11:01;;;;;;;0.00;0.00;;;;;;;27.33;93.49;101936.84;5053609;28;20029;-46
2023/08/17 11:13:28;;;;;;;0.00;0.00;;;;;;;27.21;94.01;101934.31;5054204;28;20055;-47
2023/08/17 11:15:53;;;;;;;0.00;0.00;;;;;;;27.00;94.60;101933.31;5053764;28;20045;-49
2023/08/17 11:18:18;;;;;;;0.00;0.00;;;;;;;26.19;99.77;101933.44;5053484;28;20886;-46